createdAt,value
2018-10-09T00:00:12.412Z,1016.97
2018-10-09T00:01:22.089Z,1016.93
2018-10-09T00:02:32.056Z,1016.94
2018-10-09T00:03:41.995Z,1016.96
2018-10-09T00:04:51.676Z,1016.99
2018-10-09T00:06:01.095Z,1017.05
2018-10-09T00:07:10.778Z,1017.04
2018-10-09T00:08:20.457Z,1017.02
2018-10-09T00:09:30.383Z,1016.96
2018-10-09T00:10:40.074Z,1016.95
2018-10-09T00:11:50.011Z,1016.9
2018-10-09T00:12:59.938Z,1016.84
2018-10-09T00:14:09.609Z,1016.88
2018-10-09T00:15:19.539Z,1016.83
2018-10-09T00:16:29.476Z,1016.85
2018-10-09T00:17:39.420Z,1016.81
2018-10-09T00:18:49.118Z,1016.81
2018-10-09T00:19:59.048Z,1016.81
2018-10-09T00:21:08.730Z,1016.82
2018-10-09T00:22:18.668Z,1016.83
2018-10-09T00:23:28.616Z,1016.87
2018-10-09T00:24:38.302Z,1016.82
2018-10-09T00:25:47.983Z,1016.82
2018-10-09T00:26:58.166Z,1016.78
2018-10-09T00:28:07.856Z,1016.75
2018-10-09T00:29:17.805Z,1016.69
2018-10-09T00:30:27.763Z,1016.64
2018-10-09T00:31:37.760Z,1016.65
2018-10-09T00:32:47.432Z,1016.66
2018-10-09T00:33:57.360Z,1016.68
2018-10-09T00:35:07.050Z,1016.71
2018-10-09T00:36:16.996Z,1016.76
2018-10-09T00:37:26.920Z,1016.75
2018-10-09T00:38:36.610Z,1016.72
2018-10-09T00:39:46.042Z,1016.81
2018-10-09T00:40:55.973Z,1016.78
2018-10-09T00:42:05.914Z,1016.8
2018-10-09T00:43:15.321Z,1016.77
2018-10-09T00:44:25.013Z,1016.76
2018-10-09T00:45:34.943Z,1016.73
2018-10-09T00:46:44.869Z,1016.69
2018-10-09T00:47:54.561Z,1016.65
2018-10-09T00:49:04.502Z,1016.61
2018-10-09T00:50:14.452Z,1016.62
2018-10-09T00:51:23.876Z,1016.61
2018-10-09T00:52:33.548Z,1016.57
2018-10-09T00:53:43.222Z,1016.53
2018-10-09T00:54:53.157Z,1016.5
2018-10-09T00:56:03.083Z,1016.43
2018-10-09T00:57:13.011Z,1016.46
2018-10-09T00:58:22.416Z,1016.46
2018-10-09T00:59:32.091Z,1016.5
2018-10-09T01:00:42.023Z,1016.53
2018-10-09T01:01:51.967Z,1016.54
2018-10-09T01:03:01.634Z,1016.53
2018-10-09T01:04:11.561Z,1016.56
2018-10-09T01:05:21.238Z,1016.57
2018-10-09T01:06:31.171Z,1016.55
2018-10-09T01:07:40.584Z,1016.57
2018-10-09T01:08:50.265Z,1016.61
2018-10-09T01:10:00.313Z,1016.68
2018-10-09T01:11:09.720Z,1016.71
2018-10-09T01:12:19.393Z,1016.7
2018-10-09T01:13:29.343Z,1016.73
2018-10-09T01:14:39.018Z,1016.68
2018-10-09T01:15:48.951Z,1016.71
2018-10-09T01:16:58.875Z,1016.68
2018-10-09T01:18:08.561Z,1016.65
2018-10-09T01:19:18.486Z,1016.65
2018-10-09T01:20:28.409Z,1016.63
2018-10-09T01:21:38.338Z,1016.63
2018-10-09T01:22:48.260Z,1016.62
2018-10-09T01:23:58.208Z,1016.63
2018-10-09T01:25:07.879Z,1016.62
2018-10-09T01:26:17.822Z,1016.64
2018-10-09T01:27:27.764Z,1016.64
2018-10-09T01:28:37.691Z,1016.66
2018-10-09T01:29:47.373Z,1016.64
2018-10-09T01:30:57.305Z,1016.69
2018-10-09T01:32:07.238Z,1016.7
2018-10-09T01:33:16.907Z,1016.7
2018-10-09T01:34:26.575Z,1016.75
2018-10-09T01:35:36.009Z,1016.77
2018-10-09T01:36:45.951Z,1016.84
2018-10-09T01:37:55.877Z,1016.8
2018-10-09T01:39:05.807Z,1016.8
2018-10-09T01:40:15.754Z,1016.8
2018-10-09T01:41:25.697Z,1016.77
2018-10-09T01:42:35.656Z,1016.79
2018-10-09T01:43:45.576Z,1016.77
2018-10-09T01:44:55.247Z,1016.8
2018-10-09T01:46:04.902Z,1016.76
2018-10-09T01:47:14.581Z,1016.74
2018-10-09T01:48:24.516Z,1016.76
2018-10-09T01:49:34.442Z,1016.74
2018-10-09T01:50:44.373Z,1016.74
2018-10-09T01:51:54.039Z,1016.7
2018-10-09T01:53:03.460Z,1016.67
2018-10-09T01:54:13.126Z,1016.61
2018-10-09T01:55:22.802Z,1016.64
2018-10-09T01:56:32.477Z,1016.63
2018-10-09T01:57:42.404Z,1016.64
2018-10-09T01:58:52.329Z,1016.69
2018-10-09T02:00:01.491Z,1016.67
2018-10-09T02:01:11.155Z,1016.64
2018-10-09T02:02:20.821Z,1016.63
2018-10-09T02:03:30.761Z,1016.63
2018-10-09T02:04:40.705Z,1016.63
2018-10-09T02:05:50.641Z,1016.65
2018-10-09T02:07:00.315Z,1016.63
2018-10-09T02:08:10.269Z,1016.63
2018-10-09T02:09:20.198Z,1016.57
2018-10-09T02:10:29.872Z,1016.56
2018-10-09T02:11:39.806Z,1016.56
2018-10-09T02:12:49.487Z,1016.56
2018-10-09T02:13:59.177Z,1016.58
2018-10-09T02:15:09.104Z,1016.62
2018-10-09T02:16:19.033Z,1016.65
2018-10-09T02:17:28.955Z,1016.7
2018-10-09T02:18:38.624Z,1016.67
2018-10-09T02:19:48.566Z,1016.66
2018-10-09T02:20:58.507Z,1016.67
2018-10-09T02:22:08.447Z,1016.71
2018-10-09T02:23:18.120Z,1016.7
2018-10-09T02:24:27.533Z,1016.71
2018-10-09T02:25:36.702Z,1016.73
2018-10-09T02:26:46.663Z,1016.68
2018-10-09T02:27:56.596Z,1016.7
2018-10-09T02:29:06.538Z,1016.74
2018-10-09T02:30:16.218Z,1016.75
2018-10-09T02:31:25.635Z,1016.75
2018-10-09T02:32:35.569Z,1016.76
2018-10-09T02:33:45.547Z,1016.77
2018-10-09T02:34:55.626Z,1016.75
2018-10-09T02:36:05.051Z,1016.79
2018-10-09T02:37:15.005Z,1016.77
2018-10-09T02:38:24.935Z,1016.9
2018-10-09T02:39:34.857Z,1016.83
2018-10-09T02:40:44.027Z,1016.89
2018-10-09T02:41:53.949Z,1016.84
2018-10-09T02:43:03.642Z,1016.86
2018-10-09T02:44:13.570Z,1016.89
2018-10-09T02:45:23.259Z,1016.9
2018-10-09T02:46:33.204Z,1016.92
2018-10-09T02:47:43.126Z,1016.89
2018-10-09T02:48:53.069Z,1016.95
2018-10-09T02:50:02.738Z,1016.95
2018-10-09T02:51:12.699Z,1017
2018-10-09T02:52:22.399Z,1017.05
2018-10-09T02:53:32.342Z,1016.99
2018-10-09T02:54:42.266Z,1016.94
2018-10-09T02:55:52.216Z,1016.91
2018-10-09T02:57:01.904Z,1016.93
2018-10-09T02:58:11.835Z,1016.88
2018-10-09T02:59:21.761Z,1016.9
2018-10-09T03:00:31.433Z,1016.92
2018-10-09T03:01:41.407Z,1016.85
2018-10-09T03:02:51.351Z,1016.86
2018-10-09T03:04:01.319Z,1016.85
2018-10-09T03:05:11.253Z,1016.83
2018-10-09T03:06:21.198Z,1016.79
2018-10-09T03:07:31.126Z,1016.8
2018-10-09T03:08:40.304Z,1016.8
2018-10-09T03:09:50.362Z,1016.82
2018-10-09T03:11:00.301Z,1016.83
2018-10-09T03:12:10.238Z,1016.84
2018-10-09T03:13:19.932Z,1016.91
2018-10-09T03:14:29.859Z,1016.85
2018-10-09T03:15:39.800Z,1016.84
2018-10-09T03:16:49.467Z,1016.79
2018-10-09T03:17:58.897Z,1016.82
2018-10-09T03:19:08.577Z,1016.83
2018-10-09T03:20:18.276Z,1016.8
2018-10-09T03:21:28.271Z,1016.79
2018-10-09T03:22:38.214Z,1016.79
2018-10-09T03:23:47.882Z,1016.77
2018-10-09T03:24:57.814Z,1016.77
2018-10-09T03:26:07.762Z,1016.71
2018-10-09T03:27:17.704Z,1016.73
2018-10-09T03:28:27.380Z,1016.66
2018-10-09T03:29:37.328Z,1016.71
2018-10-09T03:30:47.262Z,1016.71
2018-10-09T03:31:57.216Z,1016.71
2018-10-09T03:33:07.131Z,1016.74
2018-10-09T03:34:16.807Z,1016.68
2018-10-09T03:35:26.504Z,1016.67
2018-10-09T03:36:36.183Z,1016.7
2018-10-09T03:37:46.131Z,1016.66
2018-10-09T03:38:56.056Z,1016.66
2018-10-09T03:40:05.994Z,1016.68
2018-10-09T03:41:15.939Z,1016.69
2018-10-09T03:42:25.877Z,1016.68
2018-10-09T03:43:35.799Z,1016.69
2018-10-09T03:44:45.735Z,1016.74
2018-10-09T03:45:55.414Z,1016.73
2018-10-09T03:47:05.340Z,1016.71
2018-10-09T03:48:15.264Z,1016.73
2018-10-09T03:49:25.191Z,1016.72
2018-10-09T03:50:35.132Z,1016.7
2018-10-09T03:51:45.053Z,1016.75
2018-10-09T03:52:54.734Z,1016.74
2018-10-09T03:54:04.665Z,1016.72
2018-10-09T03:55:14.598Z,1016.71
2018-10-09T03:56:24.275Z,1016.72
2018-10-09T03:57:33.956Z,1016.69
2018-10-09T03:58:43.626Z,1016.73
2018-10-09T03:59:53.575Z,1016.75
2018-10-09T04:01:02.998Z,1016.81
2018-10-09T04:02:12.952Z,1016.79
2018-10-09T04:03:22.621Z,1016.77
2018-10-09T04:04:32.559Z,1016.74
2018-10-09T04:05:42.495Z,1016.71
2018-10-09T04:06:52.175Z,1016.74
2018-10-09T04:08:01.849Z,1016.72
2018-10-09T04:09:11.630Z,1016.73
2018-10-09T04:10:21.931Z,1016.77
2018-10-09T04:11:31.602Z,1016.75
2018-10-09T04:12:41.575Z,1016.71
2018-10-09T04:13:51.761Z,1016.72
2018-10-09T04:15:01.447Z,1016.71
2018-10-09T04:16:11.398Z,1016.75
2018-10-09T04:17:21.073Z,1016.67
2018-10-09T04:18:30.758Z,1016.72
2018-10-09T04:19:40.697Z,1016.7
2018-10-09T04:20:50.594Z,1016.69
2018-10-09T04:22:00.523Z,1016.62
2018-10-09T04:23:10.203Z,1016.63
2018-10-09T04:24:20.136Z,1016.64
2018-10-09T04:25:29.806Z,1016.64
2018-10-09T04:26:39.739Z,1016.66
2018-10-09T04:27:49.428Z,1016.66
2018-10-09T04:28:59.098Z,1016.67
2018-10-09T04:30:09.046Z,1016.69
2018-10-09T04:31:19.013Z,1016.72
2018-10-09T04:32:28.947Z,1016.77
2018-10-09T04:33:38.877Z,1016.76
2018-10-09T04:34:48.810Z,1016.79
2018-10-09T04:35:58.739Z,1016.75
2018-10-09T04:37:08.676Z,1016.79
2018-10-09T04:38:18.600Z,1016.81
2018-10-09T04:39:28.275Z,1016.88
2018-10-09T04:40:37.945Z,1016.81
2018-10-09T04:41:47.373Z,1016.79
2018-10-09T04:42:57.321Z,1016.74
2018-10-09T04:44:07.004Z,1016.71
2018-10-09T04:45:16.944Z,1016.64
2018-10-09T04:46:26.704Z,1016.69
2018-10-09T04:47:36.640Z,1016.68
2018-10-09T04:48:46.591Z,1016.64
2018-10-09T04:49:56.525Z,1016.66
2018-10-09T04:51:06.479Z,1016.62
2018-10-09T04:52:16.406Z,1016.69
2018-10-09T04:53:25.824Z,1016.66
2018-10-09T04:54:35.771Z,1016.68
2018-10-09T04:55:45.702Z,1016.69
2018-10-09T04:56:55.627Z,1016.66
2018-10-09T04:58:05.578Z,1016.65
2018-10-09T04:59:15.260Z,1016.67
2018-10-09T05:00:25.223Z,1016.77
2018-10-09T05:01:35.297Z,1016.81
2018-10-09T05:02:45.229Z,1016.79
2018-10-09T05:03:54.920Z,1016.8
2018-10-09T05:05:04.842Z,1016.78
2018-10-09T05:06:14.267Z,1016.75
2018-10-09T05:07:24.202Z,1016.76
2018-10-09T05:08:34.159Z,1016.8
2018-10-09T05:09:44.076Z,1016.82
2018-10-09T05:10:53.768Z,1016.84
2018-10-09T05:12:03.439Z,1016.84
2018-10-09T05:13:13.391Z,1016.78
2018-10-09T05:14:23.065Z,1016.76
2018-10-09T05:15:33.003Z,1016.85
2018-10-09T05:16:42.688Z,1016.85
2018-10-09T05:17:52.757Z,1016.83
2018-10-09T05:19:02.871Z,1016.89
2018-10-09T05:20:12.560Z,1016.9
2018-10-09T05:21:22.511Z,1016.88
2018-10-09T05:22:32.445Z,1016.89
2018-10-09T05:23:42.395Z,1016.87
2018-10-09T05:24:52.078Z,1016.93
2018-10-09T05:26:02.022Z,1016.93
2018-10-09T05:27:11.700Z,1016.95
2018-10-09T05:28:21.113Z,1016.95
2018-10-09T05:29:31.064Z,1016.95
2018-10-09T05:30:40.735Z,1017
2018-10-09T05:31:50.683Z,1016.98
2018-10-09T05:33:00.636Z,1017.08
2018-10-09T05:34:10.581Z,1017.13
2018-10-09T05:35:20.532Z,1017.14
2018-10-09T05:36:30.473Z,1017.14
2018-10-09T05:37:39.888Z,1017.14
2018-10-09T05:38:49.642Z,1017.16
2018-10-09T05:39:59.596Z,1017.15
2018-10-09T05:41:09.321Z,1017.14
2018-10-09T05:42:19.264Z,1017.15
2018-10-09T05:43:29.227Z,1017.16
2018-10-09T05:44:39.208Z,1017.16
2018-10-09T05:45:49.174Z,1017.13
2018-10-09T05:46:59.124Z,1017.2
2018-10-09T05:48:08.815Z,1017.26
2018-10-09T05:49:18.500Z,1017.25
2018-10-09T05:50:28.228Z,1017.27
2018-10-09T05:51:38.201Z,1017.26
2018-10-09T05:52:47.937Z,1017.26
2018-10-09T05:53:57.651Z,1017.25
2018-10-09T05:55:07.359Z,1017.29
2018-10-09T05:56:17.042Z,1017.32
2018-10-09T05:57:26.982Z,1017.36
2018-10-09T05:58:36.922Z,1017.34
2018-10-09T05:59:46.898Z,1017.39
2018-10-09T06:00:56.849Z,1017.4
2018-10-09T06:02:06.537Z,1017.37
2018-10-09T06:03:16.475Z,1017.36
2018-10-09T06:04:26.174Z,1017.4
2018-10-09T06:05:35.854Z,1017.41
2018-10-09T06:06:46.016Z,1017.4
2018-10-09T06:07:55.744Z,1017.49
2018-10-09T06:09:05.707Z,1017.45
2018-10-09T06:10:15.650Z,1017.5
2018-10-09T06:11:25.593Z,1017.46
2018-10-09T06:12:35.532Z,1017.5
2018-10-09T06:13:45.457Z,1017.53
2018-10-09T06:14:55.395Z,1017.54
2018-10-09T06:16:05.472Z,1017.52
2018-10-09T06:17:15.653Z,1017.51
2018-10-09T06:18:25.605Z,1017.5
2018-10-09T06:19:35.027Z,1017.49
2018-10-09T06:20:44.698Z,1017.49
2018-10-09T06:21:54.671Z,1017.49
2018-10-09T06:23:04.475Z,1017.45
2018-10-09T06:24:14.417Z,1017.46
2018-10-09T06:25:24.366Z,1017.41
2018-10-09T06:26:34.064Z,1017.43
2018-10-09T06:27:44.007Z,1017.41
2018-10-09T06:28:53.873Z,1017.36
2018-10-09T06:30:03.852Z,1017.36
2018-10-09T06:31:13.800Z,1017.37
2018-10-09T06:32:23.750Z,1017.43
2018-10-09T06:33:33.692Z,1017.47
2018-10-09T06:34:43.431Z,1017.44
2018-10-09T06:35:53.436Z,1017.46
2018-10-09T06:37:03.435Z,1017.5
2018-10-09T06:38:13.395Z,1017.49
2018-10-09T06:39:23.073Z,1017.49
2018-10-09T06:40:33.111Z,1017.43
2018-10-09T06:41:43.697Z,1017.49
2018-10-09T06:42:53.566Z,1017.47
2018-10-09T06:44:03.731Z,1017.47
2018-10-09T06:45:13.533Z,1017.48
2018-10-09T06:46:23.469Z,1017.49
2018-10-09T06:47:32.982Z,1017.5
2018-10-09T06:48:43.552Z,1017.54
2018-10-09T06:49:53.250Z,1017.47
2018-10-09T06:51:02.964Z,1017.49
2018-10-09T06:52:13.030Z,1017.5
2018-10-09T06:53:23.051Z,1017.47
2018-10-09T06:54:33.638Z,1017.51
2018-10-09T06:55:44.214Z,1017.52
2018-10-09T06:56:54.183Z,1017.57
2018-10-09T06:58:04.144Z,1017.56
2018-10-09T06:59:14.104Z,1017.66
2018-10-09T07:00:24.096Z,1017.59
2018-10-09T07:01:34.147Z,1017.61
2018-10-09T07:02:44.107Z,1017.6
2018-10-09T07:03:54.062Z,1017.64
2018-10-09T07:05:04.032Z,1017.67
2018-10-09T07:06:14.007Z,1017.64
2018-10-09T07:07:23.983Z,1017.64
2018-10-09T07:08:33.936Z,1017.65
2018-10-09T07:09:43.913Z,1017.61
2018-10-09T07:10:53.626Z,1017.62
2018-10-09T07:12:03.934Z,1017.61
2018-10-09T07:13:13.899Z,1017.67
2018-10-09T07:14:23.873Z,1017.71
2018-10-09T07:15:33.821Z,1017.75
2018-10-09T07:16:43.517Z,1017.76
2018-10-09T07:17:53.291Z,1017.75
2018-10-09T07:19:03.114Z,1017.73
2018-10-09T07:20:12.808Z,1017.76
2018-10-09T07:21:22.776Z,1017.81
2018-10-09T07:22:32.737Z,1017.84
2018-10-09T07:23:42.704Z,1017.81
2018-10-09T07:24:52.978Z,1017.78
2018-10-09T07:26:02.959Z,1017.71
2018-10-09T07:27:12.675Z,1017.75
2018-10-09T07:28:22.643Z,1017.76
2018-10-09T07:29:32.338Z,1017.76
2018-10-09T07:30:42.024Z,1017.77
2018-10-09T07:31:51.761Z,1017.75
2018-10-09T07:33:01.457Z,1017.76
2018-10-09T07:34:11.436Z,1017.77
2018-10-09T07:35:21.399Z,1017.79
2018-10-09T07:36:31.173Z,1017.79
2018-10-09T07:37:41.045Z,1017.81
2018-10-09T07:38:51.275Z,1017.85
2018-10-09T07:40:01.264Z,1017.91
2018-10-09T07:41:11.243Z,1017.87
2018-10-09T07:42:21.206Z,1017.86
2018-10-09T07:43:31.154Z,1017.83
2018-10-09T07:44:41.118Z,1017.82
2018-10-09T07:45:50.563Z,1017.88
2018-10-09T07:47:00.273Z,1017.83
2018-10-09T07:48:10.236Z,1017.87
2018-10-09T07:49:20.201Z,1017.92
2018-10-09T07:50:30.162Z,1017.97
2018-10-09T07:51:40.142Z,1018.01
2018-10-09T07:52:50.163Z,1018.05
2018-10-09T07:54:00.529Z,1018.09
2018-10-09T07:55:10.503Z,1018.18
2018-10-09T07:56:20.206Z,1018.14
2018-10-09T07:57:30.252Z,1018.15
2018-10-09T07:58:40.048Z,1018.13
2018-10-09T07:59:50.619Z,1018.15
2018-10-09T08:01:00.573Z,1018.11
2018-10-09T08:02:10.560Z,1018.11
2018-10-09T08:03:20.303Z,1018.12
2018-10-09T08:04:29.772Z,1018.09
2018-10-09T08:05:39.748Z,1018.1
2018-10-09T08:06:49.722Z,1018.11
2018-10-09T08:07:59.680Z,1018.12
2018-10-09T08:09:09.385Z,1018.08
2018-10-09T08:10:19.381Z,1018.11
2018-10-09T08:11:29.437Z,1018.15
2018-10-09T08:12:39.160Z,1018.13
2018-10-09T08:13:49.145Z,1018.13
2018-10-09T08:14:59.127Z,1018.14
2018-10-09T08:16:08.891Z,1018.14
2018-10-09T08:17:19.039Z,1018.05
2018-10-09T08:18:29.009Z,1018.05
2018-10-09T08:19:38.965Z,1018.05
2018-10-09T08:20:48.939Z,1018.04
2018-10-09T08:21:58.641Z,1018.07
2018-10-09T08:23:08.347Z,1018.08
2018-10-09T08:24:18.047Z,1018.14
2018-10-09T08:25:27.797Z,1018.11
2018-10-09T08:26:37.759Z,1018.17
2018-10-09T08:27:47.734Z,1018.16
2018-10-09T08:28:57.583Z,1018.18
2018-10-09T08:30:07.308Z,1018.21
2018-10-09T08:31:17.285Z,1018.18
2018-10-09T08:32:27.269Z,1018.28
2018-10-09T08:33:37.237Z,1018.28
2018-10-09T08:34:46.972Z,1018.3
2018-10-09T08:35:56.921Z,1018.33
2018-10-09T08:37:06.907Z,1018.34
2018-10-09T08:38:16.892Z,1018.35
2018-10-09T08:39:26.575Z,1018.34
2018-10-09T08:40:36.036Z,1018.37
2018-10-09T08:41:46.017Z,1018.38
2018-10-09T08:42:55.974Z,1018.36
2018-10-09T08:44:05.683Z,1018.39
2018-10-09T08:45:15.661Z,1018.45
2018-10-09T08:46:25.725Z,1018.41
2018-10-09T08:47:35.796Z,1018.44
2018-10-09T08:48:45.490Z,1018.42
2018-10-09T08:49:55.498Z,1018.45
2018-10-09T08:51:05.467Z,1018.46
2018-10-09T08:52:14.910Z,1018.48
2018-10-09T08:53:24.868Z,1018.51
2018-10-09T08:54:34.840Z,1018.5
2018-10-09T08:55:44.551Z,1018.51
2018-10-09T08:56:54.518Z,1018.49
2018-10-09T08:58:04.538Z,1018.51
2018-10-09T08:59:14.504Z,1018.52
2018-10-09T09:00:24.466Z,1018.54
2018-10-09T09:01:34.455Z,1018.57
2018-10-09T09:02:43.902Z,1018.58
2018-10-09T09:03:53.601Z,1018.59
2018-10-09T09:05:03.571Z,1018.55
2018-10-09T09:06:13.535Z,1018.56
2018-10-09T09:07:23.520Z,1018.57
2018-10-09T09:08:33.499Z,1018.58
2018-10-09T09:09:43.349Z,1018.63
2018-10-09T09:10:53.749Z,1018.6
2018-10-09T09:12:03.736Z,1018.55
2018-10-09T09:13:13.737Z,1018.61
2018-10-09T09:14:23.696Z,1018.58
2018-10-09T09:15:33.134Z,1018.54
2018-10-09T09:16:43.100Z,1018.61
2018-10-09T09:17:53.089Z,1018.6
2018-10-09T09:19:03.092Z,1018.63
2018-10-09T09:20:12.535Z,1018.69
2018-10-09T09:21:22.054Z,1018.71
2018-10-09T09:22:31.836Z,1018.73
2018-10-09T09:23:41.792Z,1018.73
2018-10-09T09:24:51.787Z,1018.76
2018-10-09T09:26:01.811Z,1018.78
2018-10-09T09:27:12.196Z,1018.77
2018-10-09T09:28:22.774Z,1018.75
2018-10-09T09:29:32.736Z,1018.77
2018-10-09T09:30:42.695Z,1018.79
2018-10-09T09:31:52.666Z,1018.79
2018-10-09T09:33:02.244Z,1018.82
2018-10-09T09:34:12.584Z,1018.8
2018-10-09T09:35:22.272Z,1018.82
2018-10-09T09:36:32.239Z,1018.84
2018-10-09T09:37:41.943Z,1018.8
2018-10-09T09:38:51.400Z,1018.79
2018-10-09T09:40:01.424Z,1018.79
2018-10-09T09:41:11.151Z,1018.79
2018-10-09T09:42:20.849Z,1018.79
2018-10-09T09:43:30.806Z,1018.79
2018-10-09T09:44:40.827Z,1018.77
2018-10-09T09:45:50.577Z,1018.75
2018-10-09T09:47:01.353Z,1018.78
2018-10-09T09:48:11.322Z,1018.75
2018-10-09T09:49:21.297Z,1018.74
2018-10-09T09:50:31.271Z,1018.71
2018-10-09T09:51:41.240Z,1018.74
2018-10-09T09:52:50.948Z,1018.73
2018-10-09T09:54:00.912Z,1018.74
2018-10-09T09:55:10.877Z,1018.77
2018-10-09T09:56:20.954Z,1018.71
2018-10-09T09:57:30.919Z,1018.67
2018-10-09T09:58:41.012Z,1018.7
2018-10-09T09:59:52.800Z,1018.72
2018-10-09T10:01:02.503Z,1018.69
2018-10-09T10:02:12.219Z,1018.69
2018-10-09T10:03:21.904Z,1018.67
2018-10-09T10:04:32.127Z,1018.74
2018-10-09T10:05:42.095Z,1018.69
2018-10-09T10:06:52.059Z,1018.74
2018-10-09T10:08:02.077Z,1018.71
2018-10-09T10:09:11.823Z,1018.71
2018-10-09T10:10:22.225Z,1018.72
2018-10-09T10:11:32.204Z,1018.64
2018-10-09T10:12:42.438Z,1018.63
2018-10-09T10:13:52.422Z,1018.61
2018-10-09T10:15:02.460Z,1018.58
2018-10-09T10:16:12.433Z,1018.58
2018-10-09T10:17:22.438Z,1018.6
2018-10-09T10:18:32.466Z,1018.6
2018-10-09T10:19:42.183Z,1018.61
2018-10-09T10:20:52.205Z,1018.6
2018-10-09T10:22:01.917Z,1018.66
2018-10-09T10:23:11.923Z,1018.64
2018-10-09T10:24:22.194Z,1018.64
2018-10-09T10:25:36.660Z,1018.66
2018-10-09T10:26:46.387Z,1018.64
2018-10-09T10:27:59.615Z,1018.68
2018-10-09T10:29:13.364Z,1018.67
2018-10-09T10:30:36.542Z,1018.63
2018-10-09T10:31:56.344Z,1018.65
2018-10-09T10:33:10.057Z,1018.6
2018-10-09T10:34:32.743Z,1018.66
2018-10-09T10:37:40.778Z,1018.63
2018-10-09T10:39:01.301Z,1018.62
2018-10-09T10:40:34.440Z,1018.67
2018-10-09T10:41:47.632Z,1018.66
2018-10-09T10:43:06.907Z,1018.67
2018-10-09T10:44:20.000Z,1018.65
2018-10-09T10:45:35.404Z,1018.65
2018-10-09T10:46:57.416Z,1018.7
2018-10-09T10:48:16.438Z,1018.68
2018-10-09T10:49:36.388Z,1018.74
2018-10-09T10:50:53.516Z,1018.72
2018-10-09T10:52:17.646Z,1018.71
2018-10-09T10:53:34.499Z,1018.71
2018-10-09T10:54:52.824Z,1018.64
2018-10-09T10:56:06.470Z,1018.63
2018-10-09T10:57:26.418Z,1018.67
2018-10-09T10:58:36.161Z,1018.62
2018-10-09T10:59:45.895Z,1018.59
2018-10-09T11:00:55.368Z,1018.58
2018-10-09T11:02:05.070Z,1018.63
2018-10-09T11:03:14.831Z,1018.58
2018-10-09T11:04:24.791Z,1018.63
2018-10-09T11:05:34.756Z,1018.57
2018-10-09T11:06:44.483Z,1018.57
2018-10-09T11:07:54.500Z,1018.53
2018-10-09T11:09:05.157Z,1018.56
2018-10-09T11:10:14.624Z,1018.49
2018-10-09T11:11:24.358Z,1018.52
2018-10-09T11:12:34.113Z,1018.52
2018-10-09T11:13:44.086Z,1018.49
2018-10-09T11:14:54.053Z,1018.48
2018-10-09T11:16:03.773Z,1018.42
2018-10-09T11:17:13.519Z,1018.46
2018-10-09T11:18:23.481Z,1018.4
2018-10-09T11:19:33.454Z,1018.34
2018-10-09T11:20:42.900Z,1018.34
2018-10-09T11:21:52.878Z,1018.35
2018-10-09T11:23:02.842Z,1018.33
2018-10-09T11:24:12.816Z,1018.29
2018-10-09T11:25:22.830Z,1018.26
2018-10-09T11:26:32.755Z,1018.25
2018-10-09T11:27:42.812Z,1018.23
2018-10-09T11:28:52.596Z,1018.2
2018-10-09T11:30:02.772Z,1018.22
2018-10-09T11:31:12.481Z,1018.13
2018-10-09T11:32:22.488Z,1018.16
2018-10-09T11:33:32.611Z,1018.19
2018-10-09T11:34:42.326Z,1018.18
2018-10-09T11:35:52.289Z,1018.18
2018-10-09T11:37:02.431Z,1018.14
2018-10-09T11:38:12.408Z,1018.11
2018-10-09T11:39:22.123Z,1018.1
2018-10-09T11:40:32.093Z,1018.14
2018-10-09T11:41:42.060Z,1018.15
2018-10-09T11:42:52.158Z,1018.14
2018-10-09T11:44:02.096Z,1018.12
2018-10-09T11:45:12.052Z,1018.11
2018-10-09T11:46:21.753Z,1018.08
2018-10-09T11:47:31.717Z,1018.07
2018-10-09T11:48:41.724Z,1018.12
2018-10-09T11:49:51.167Z,1018.11
2018-10-09T11:51:01.128Z,1018.09
2018-10-09T11:52:10.837Z,1018.11
2018-10-09T11:53:20.813Z,1018.08
2018-10-09T11:54:30.538Z,1018.06
2018-10-09T11:55:40.245Z,1018.01
2018-10-09T11:56:50.366Z,1018.05
2018-10-09T11:58:00.329Z,1018.03
2018-10-09T11:59:10.072Z,1018.04
2018-10-09T12:00:20.247Z,1018.06
2018-10-09T12:01:29.979Z,1018.05
2018-10-09T12:02:39.675Z,1018.05
2018-10-09T12:03:49.850Z,1018.02
2018-10-09T12:04:59.862Z,1018.06
2018-10-09T12:06:09.564Z,1018.07
2018-10-09T12:07:19.530Z,1018.09
2018-10-09T12:08:29.502Z,1018.09
2018-10-09T12:09:39.480Z,1018.07
2018-10-09T12:10:49.440Z,1018.04
2018-10-09T12:11:59.153Z,1018.06
2018-10-09T12:13:09.116Z,1018.07
2018-10-09T12:14:19.093Z,1018.14
2018-10-09T12:15:29.065Z,1018.13
2018-10-09T12:16:39.092Z,1018.12
2018-10-09T12:17:49.288Z,1018.09
2018-10-09T12:18:59.033Z,1018.09
2018-10-09T12:20:09.004Z,1018.08
2018-10-09T12:21:18.982Z,1018.09
2018-10-09T12:22:28.972Z,1018.06
2018-10-09T12:23:39.198Z,1018.01
2018-10-09T12:24:49.166Z,1018.07
2018-10-09T12:25:59.132Z,1018.04
2018-10-09T12:27:09.511Z,1018.08
2018-10-09T12:28:19.418Z,1018.1
2018-10-09T12:29:29.388Z,1018.04
2018-10-09T12:30:39.391Z,1018.09
2018-10-09T12:31:49.151Z,1018.09
2018-10-09T12:32:59.211Z,1018.08
2018-10-09T12:34:09.603Z,1018.04
2018-10-09T12:35:19.053Z,1018.04
2018-10-09T12:36:29.013Z,1018.03
2018-10-09T12:37:38.971Z,1018.05
2018-10-09T12:38:48.940Z,1018
2018-10-09T12:39:58.920Z,1018.01
2018-10-09T12:41:08.639Z,1018
2018-10-09T12:42:18.090Z,1018
2018-10-09T12:43:28.045Z,1018.02
2018-10-09T12:44:37.747Z,1017.98
2018-10-09T12:45:47.715Z,1017.95
2018-10-09T12:46:57.428Z,1017.95
2018-10-09T12:48:07.405Z,1017.98
2018-10-09T12:49:17.378Z,1017.96
2018-10-09T12:50:27.083Z,1017.92
2018-10-09T12:51:37.266Z,1017.91
2018-10-09T12:52:47.239Z,1017.97
2018-10-09T12:53:57.408Z,1017.95
2018-10-09T12:55:07.384Z,1017.95
2018-10-09T12:56:17.090Z,1017.87
2018-10-09T12:57:27.370Z,1017.93
2018-10-09T12:58:37.441Z,1017.93
2018-10-09T12:59:47.848Z,1017.92
2018-10-09T13:00:57.824Z,1017.89
2018-10-09T13:02:07.804Z,1017.85
2018-10-09T13:03:17.786Z,1017.87
2018-10-09T13:04:27.773Z,1017.86
2018-10-09T13:05:37.736Z,1017.83
2018-10-09T13:06:47.702Z,1017.84
2018-10-09T13:07:57.541Z,1017.83
2018-10-09T13:09:07.519Z,1017.79
2018-10-09T13:10:17.230Z,1017.82
2018-10-09T13:11:27.188Z,1017.81
2018-10-09T13:12:37.157Z,1017.78
2018-10-09T13:13:47.112Z,1017.79
2018-10-09T13:14:56.803Z,1017.85
2018-10-09T13:16:06.773Z,1017.81
2018-10-09T13:17:16.809Z,1017.84
2018-10-09T13:18:27.260Z,1017.84
2018-10-09T13:19:37.214Z,1017.84
2018-10-09T13:20:47.176Z,1017.8
2018-10-09T13:21:58.144Z,1017.83
2018-10-09T13:23:09.498Z,1017.79
2018-10-09T13:24:19.464Z,1017.74
2018-10-09T13:25:29.436Z,1017.78
2018-10-09T13:26:39.125Z,1017.74
2018-10-09T13:27:48.325Z,1017.73
2018-10-09T13:28:58.033Z,1017.71
2018-10-09T13:30:07.760Z,1017.75
2018-10-09T13:31:17.208Z,1017.69
2018-10-09T13:32:27.181Z,1017.69
2018-10-09T13:33:37.133Z,1017.72
2018-10-09T13:34:46.569Z,1017.65
2018-10-09T13:35:56.283Z,1017.69
2018-10-09T13:37:05.479Z,1017.69
2018-10-09T13:38:15.282Z,1017.68
2018-10-09T13:39:25.686Z,1017.7
2018-10-09T13:40:35.672Z,1017.71
2018-10-09T13:41:45.631Z,1017.73
2018-10-09T13:42:55.658Z,1017.75
2018-10-09T13:44:05.713Z,1017.75
2018-10-09T13:45:15.609Z,1017.7
2018-10-09T13:46:25.564Z,1017.7
2018-10-09T13:47:35.658Z,1017.64
2018-10-09T13:48:46.464Z,1017.65
2018-10-09T13:49:56.432Z,1017.58
2018-10-09T13:51:06.438Z,1017.58
2018-10-09T13:52:16.398Z,1017.55
2018-10-09T13:53:26.420Z,1017.56
2018-10-09T13:54:36.445Z,1017.56
2018-10-09T13:55:46.394Z,1017.56
2018-10-09T13:56:56.382Z,1017.54
2018-10-09T13:58:06.423Z,1017.51
2018-10-09T13:59:16.394Z,1017.5
2018-10-09T14:00:26.397Z,1017.46
2018-10-09T14:01:36.792Z,1017.45
2018-10-09T14:02:46.755Z,1017.45
2018-10-09T14:03:56.645Z,1017.43
2018-10-09T14:05:06.346Z,1017.45
2018-10-09T14:06:16.343Z,1017.4
2018-10-09T14:07:26.518Z,1017.4
2018-10-09T14:08:36.492Z,1017.34
2018-10-09T14:09:46.465Z,1017.34
2018-10-09T14:10:56.240Z,1017.34
2018-10-09T14:12:05.935Z,1017.29
2018-10-09T14:13:15.375Z,1017.29